Time;durP1;ratioP1;P1;durP2;ratioP2;P2;SDS_P1;SDS_P2;PMS_P1;PMS_P2;Temp;Humidity;BMP_temperature;BMP_pressure;BME280_temperature;BME280_humidity;BME280_pressure;Samples;Min_cycle;Max_cycle;Signal;HPM_P1;HPM_P2
2023/09/22 00:02:15;;;;;;;20.20;11.30;;;;;;;22.72;40.52;100302.50;107909;1255;72512;-61
2023/09/22 00:04:41;;;;;;;18.30;10.70;;;;;;;22.64;40.62;100301.53;107852;1255;60541;-64
2023/09/22 00:07:08;;;;;;;21.50;10.80;;;;;;;22.66;40.61;100302.98;107943;1255;60328;-65
2023/09/22 00:09:35;;;;;;;16.80;10.20;;;;;;;22.71;40.64;100298.48;107781;1255;73689;-63
2023/09/22 00:12:02;;;;;;;24.90;10.70;;;;;;;22.65;40.62;100300.59;107883;1255;69707;-65
2023/09/22 00:14:29;;;;;;;20.00;10.60;;;;;;;22.70;40.56;100299.58;107846;1255;73174;-66
2023/09/22 00:16:56;;;;;;;16.40;10.30;;;;;;;22.75;40.59;100297.06;107840;1255;60323;-67
2023/09/22 00:19:22;;;;;;;18.00;9.90;;;;;;;22.74;40.76;100297.48;107896;1255;60475;-64
2023/09/22 00:21:49;;;;;;;15.40;10.20;;;;;;;22.71;40.71;100301.00;107836;1255;73738;-65
2023/09/22 00:24:16;;;;;;;17.20;10.70;;;;;;;22.72;40.62;100300.36;107846;1255;71043;-67
2023/09/22 00:26:42;;;;;;;23.00;11.20;;;;;;;22.67;40.79;100301.12;107844;1255;72068;-67
2023/09/22 00:29:10;;;;;;;18.20;10.00;;;;;;;22.75;40.60;100301.14;107887;1255;61689;-66
2023/09/22 00:31:37;;;;;;;17.40;10.40;;;;;;;22.77;40.87;100302.62;107861;1255;60626;-65
2023/09/22 00:34:04;;;;;;;20.10;11.20;;;;;;;22.70;40.92;100302.31;107873;1260;73929;-66
2023/09/22 00:36:32;;;;;;;22.90;10.70;;;;;;;22.74;40.80;100305.75;107898;1256;70873;-65
2023/09/22 00:39:00;;;;;;;20.50;11.60;;;;;;;22.52;41.16;100303.09;107843;1255;71777;-65
2023/09/22 00:41:26;;;;;;;21.50;11.30;;;;;;;22.48;41.35;100302.02;107876;1255;62307;-65
2023/09/22 00:43:53;;;;;;;21.90;11.90;;;;;;;22.35;41.43;100299.52;107952;1255;60323;-66
2023/09/22 00:46:21;;;;;;;21.10;11.50;;;;;;;22.36;41.58;100304.63;107874;1255;74375;-67
2023/09/22 00:48:48;;;;;;;25.40;12.10;;;;;;;22.37;41.62;100297.39;107931;1255;68013;-65
2023/09/22 00:51:19;;;;;;;18.80;12.00;;;;;;;22.16;41.85;100303.01;107756;1256;73289;-65
2023/09/22 00:53:46;;;;;;;19.20;12.30;;;;;;;22.50;41.55;100302.23;107846;1255;62363;-65
2023/09/22 00:56:12;;;;;;;27.70;11.70;;;;;;;22.44;41.50;100303.47;107892;1255;60748;-66
2023/09/22 00:58:39;;;;;;;23.30;11.40;;;;;;;22.41;41.56;100298.64;107785;1255;75091;-65
2023/09/22 01:01:08;;;;;;;22.80;12.10;;;;;;;22.22;41.83;100302.56;107861;1255;70496;-66
2023/09/22 01:03:35;;;;;;;21.60;12.90;;;;;;;22.34;41.78;100305.17;107821;1255;73084;-66
2023/09/22 01:06:03;;;;;;;22.10;11.60;;;;;;;22.50;41.40;100308.61;107848;1256;61964;-67
2023/09/22 01:08:30;;;;;;;19.30;10.30;;;;;;;22.62;41.28;100308.91;107872;1255;60374;-66
2023/09/22 01:10:57;;;;;;;19.50;12.00;;;;;;;22.47;41.51;100311.77;107831;1255;59460;-66
2023/09/22 01:13:24;;;;;;;24.50;12.10;;;;;;;22.43;41.53;100311.73;107570;1255;70431;-66
2023/09/22 01:15:50;;;;;;;21.70;11.80;;;;;;;22.40;41.58;100307.32;107764;1260;60321;-65
2023/09/22 01:18:18;;;;;;;22.90;12.20;;;;;;;22.33;41.91;100302.86;107738;1255;60770;-67
2023/09/22 01:20:45;;;;;;;22.80;11.90;;;;;;;22.14;42.06;100305.56;107823;1260;60295;-66
2023/09/22 01:23:12;;;;;;;21.80;11.70;;;;;;;22.15;41.84;100306.20;107843;1255;73800;-66
2023/09/22 01:25:39;;;;;;;20.50;12.40;;;;;;;22.12;41.87;100313.76;107945;1256;69422;-66
2023/09/22 01:28:07;;;;;;;22.10;10.40;;;;;;;22.07;42.01;100313.79;107855;1260;72393;-66
2023/09/22 01:30:34;;;;;;;20.60;10.60;;;;;;;22.14;41.67;100312.02;107860;1255;61904;-65
2023/09/22 01:33:02;;;;;;;17.70;10.90;;;;;;;22.10;41.46;100314.24;107851;1255;60305;-66
2023/09/22 01:35:32;;;;;;;12.00;8.70;;;;;;;22.15;41.38;100306.02;107852;1255;73928;-66
2023/09/22 01:38:19;;;;;;;19.10;10.10;;;;;;;22.06;41.45;100302.05;107836;1255;70161;-66
2023/09/22 01:40:46;;;;;;;13.80;9.30;;;;;;;22.21;41.18;100306.37;107904;1256;71502;-66
2023/09/22 01:43:14;;;;;;;19.00;9.60;;;;;;;22.40;41.02;100306.10;107757;1255;61757;-66
2023/09/22 01:45:41;;;;;;;22.10;10.00;;;;;;;22.58;40.43;100308.56;107935;1255;60417;-65
2023/09/22 01:48:08;;;;;;;13.50;9.20;;;;;;;22.64;40.31;100307.80;107966;1255;73683;-67
2023/09/22 01:50:38;;;;;;;16.10;9.50;;;;;;;22.60;40.63;100307.45;107908;1255;68833;-65
2023/09/22 01:53:06;;;;;;;16.20;9.80;;;;;;;22.75;40.18;100303.49;107853;1255;72474;-67
2023/09/22 01:55:32;;;;;;;14.70;8.70;;;;;;;22.76;40.10;100305.86;107579;1255;62024;-66
2023/09/22 01:57:59;;;;;;;16.30;10.10;;;;;;;22.75;40.13;100301.36;107747;1255;60398;-65
2023/09/22 02:00:26;;;;;;;20.10;9.80;;;;;;;22.71;39.92;100305.63;107614;1255;73894;-66
2023/09/22 02:02:53;;;;;;;14.90;9.50;;;;;;;22.90;39.72;100302.03;107868;1256;69578;-65
2023/09/22 02:05:20;;;;;;;19.40;9.70;;;;;;;22.98;39.51;100302.99;107814;1255;72957;-66
2023/09/22 02:07:47;;;;;;;14.10;9.10;;;;;;;22.89;39.89;100303.17;107829;1255;60898;-65
2023/09/22 02:10:14;;;;;;;20.50;9.50;;;;;;;22.71;40.37;100300.95;107824;1255;60189;-65
2023/09/22 02:12:41;;;;;;;14.50;9.90;;;;;;;22.71;40.34;100302.36;107864;1255;74048;-65
2023/09/22 02:15:12;;;;;;;17.60;9.90;;;;;;;22.53;40.63;100301.63;107830;1255;69507;-66
2023/09/22 02:17:39;;;;;;;16.30;9.40;;;;;;;22.56;40.58;100300.48;107882;1255;72599;-66
2023/09/22 02:20:22;;;;;;;17.00;9.40;;;;;;;22.82;40.22;100296.07;107849;1256;61257;-65
2023/09/22 02:22:50;;;;;;;17.10;9.20;;;;;;;22.85;40.20;100295.12;107827;1255;61000;-66
2023/09/22 02:25:17;;;;;;;14.90;9.80;;;;;;;22.85;40.08;100297.67;107849;1255;74342;-64
2023/09/22 02:27:44;;;;;;;19.60;9.50;;;;;;;22.81;40.35;100301.01;107772;1255;70183;-65
2023/09/22 02:30:11;;;;;;;17.50;9.90;;;;;;;22.88;40.18;100299.89;107860;1255;72869;-64
2023/09/22 02:32:39;;;;;;;15.90;10.30;;;;;;;22.84;39.89;100296.45;107848;1260;61780;-65
2023/09/22 02:35:07;;;;;;;14.80;10.40;;;;;;;22.88;40.00;100296.98;107817;1260;60490;-65
2023/09/22 02:37:34;;;;;;;17.40;9.80;;;;;;;23.11;39.71;100296.98;107802;1255;72591;-66
2023/09/22 02:40:02;;;;;;;17.40;9.20;;;;;;;23.27;39.75;100292.79;107612;1255;70924;-66
2023/09/22 02:42:29;;;;;;;17.40;9.50;;;;;;;23.23;39.57;100291.85;107832;1255;71483;-66
2023/09/22 02:44:56;;;;;;;16.60;9.40;;;;;;;23.12;39.86;100300.14;107887;1255;62040;-66
2023/09/22 02:47:22;;;;;;;15.00;9.00;;;;;;;23.09;40.14;100297.14;107865;1255;60435;-66
2023/09/22 02:49:49;;;;;;;17.20;9.30;;;;;;;22.97;40.38;100297.89;107865;1255;73646;-66
2023/09/22 02:52:16;;;;;;;15.00;8.70;;;;;;;22.97;40.23;100295.58;107854;1255;70817;-67
2023/09/22 02:54:42;;;;;;;19.60;9.60;;;;;;;23.06;40.34;100294.95;107864;1255;60414;-67
2023/09/22 02:57:09;;;;;;;17.20;10.00;;;;;;;23.05;40.37;100298.98;107898;1260;61675;-67
2023/09/22 02:59:36;;;;;;;17.40;9.90;;;;;;;22.93;40.68;100296.91;107897;1255;60323;-66
2023/09/22 03:04:58;;;;;;;15.70;9.70;;;;;;;21.40;44.06;100308.33;105648;1283;600124;-66
2023/09/22 03:07:25;;;;;;;19.40;10.20;;;;;;;22.17;42.68;100306.34;107251;1267;60452;-67
2023/09/22 03:09:53;;;;;;;21.10;10.10;;;;;;;22.29;42.43;100307.51;107707;1258;60000;-65
2023/09/22 03:12:20;;;;;;;16.90;9.70;;;;;;;22.39;42.33;100305.30;107721;1257;70873;-66
2023/09/22 03:14:48;;;;;;;16.40;10.40;;;;;;;22.52;42.27;100304.95;107784;1257;69178;-67
2023/09/22 03:17:16;;;;;;;20.00;11.30;;;;;;;22.51;42.27;100301.45;107731;1257;73331;-66
2023/09/22 03:19:43;;;;;;;18.40;10.20;;;;;;;22.49;42.58;100303.13;107955;1255;202141;-67
2023/09/22 03:22:11;;;;;;;19.10;10.40;;;;;;;22.51;42.82;100305.77;107991;1254;59153;-66
2023/09/22 03:24:38;;;;;;;18.60;9.50;;;;;;;22.49;42.63;100307.88;107965;1254;71302;-66
2023/09/22 03:27:06;;;;;;;22.10;10.80;;;;;;;22.47;42.76;100310.88;108026;1254;70312;-66
2023/09/22 03:29:33;;;;;;;19.70;10.20;;;;;;;22.43;42.74;100317.14;108027;1260;73145;-66
2023/09/22 03:32:01;;;;;;;15.20;9.50;;;;;;;22.34;42.82;100317.48;108113;1254;61690;-66
2023/09/22 03:34:28;;;;;;;17.60;11.60;;;;;;;22.46;42.76;100313.70;108016;1258;60012;-66
2023/09/22 03:36:56;;;;;;;23.10;10.50;;;;;;;22.50;42.56;100314.72;108043;1254;73265;-65
2023/09/22 03:39:26;;;;;;;20.90;10.50;;;;;;;22.58;42.59;100311.70;108165;1254;69069;-66
2023/09/22 03:41:54;;;;;;;19.40;11.00;;;;;;;22.58;42.66;100320.69;107925;1260;71039;-66
2023/09/22 03:44:22;;;;;;;15.90;10.60;;;;;;;22.44;43.00;100329.86;108058;1254;61616;-66
2023/09/22 03:46:49;;;;;;;23.60;11.60;;;;;;;22.29;43.33;100340.77;107872;1257;60025;-66
2023/09/22 03:49:17;;;;;;;28.30;10.90;;;;;;;22.23;43.24;100333.11;107777;1257;73003;-65
2023/09/22 03:51:44;;;;;;;24.60;11.10;;;;;;;22.14;43.42;100330.60;107829;1256;69690;-66
2023/09/22 03:54:11;;;;;;;20.20;11.40;;;;;;;22.02;43.85;100338.57;107936;1257;72709;-66
2023/09/22 03:56:39;;;;;;;23.00;11.30;;;;;;;22.02;43.75;100342.28;107869;1257;61713;-66
2023/09/22 03:59:07;;;;;;;21.30;11.00;;;;;;;22.01;43.78;100341.31;107858;1257;60001;-67
2023/09/22 04:01:35;;;;;;;18.50;10.20;;;;;;;22.00;43.91;100341.72;107915;1257;73031;-67
2023/09/22 04:04:04;;;;;;;14.30;10.00;;;;;;;21.79;44.38;100347.75;107866;1257;69926;-66
2023/09/22 04:06:31;;;;;;;15.80;10.60;;;;;;;21.50;45.03;100346.80;107714;1257;72674;-66
2023/09/22 04:09:02;;;;;;;18.50;11.70;;;;;;;21.37;45.59;100345.89;107753;1256;61589;-66
2023/09/22 04:11:29;;;;;;;23.30;11.70;;;;;;;21.43;45.60;100346.83;107773;1256;60023;-66
2023/09/22 04:13:57;;;;;;;18.20;11.40;;;;;;;21.50;45.50;100352.50;107818;1256;72355;-66
2023/09/22 04:16:25;;;;;;;23.40;12.20;;;;;;;21.57;45.20;100348.88;107790;1257;69161;-67
2023/09/22 04:18:54;;;;;;;24.70;11.60;;;;;;;21.87;44.99;100346.48;107905;1257;72635;-66
2023/09/22 04:21:22;;;;;;;20.90;11.20;;;;;;;22.21;44.47;100346.63;107762;1260;61672;-66
2023/09/22 04:23:59;;;;;;;21.50;10.90;;;;;;;22.43;44.02;100345.73;107799;1256;59510;-67
2023/09/22 04:26:29;;;;;;;17.80;11.20;;;;;;;22.74;43.57;100348.80;107754;1256;71596;-66
2023/09/22 04:28:59;;;;;;;18.50;10.80;;;;;;;22.95;42.95;100350.14;107826;1257;70181;-66
2023/09/22 04:31:28;;;;;;;19.70;10.80;;;;;;;23.15;42.62;100348.61;107900;1257;72730;-66
2023/09/22 04:33:56;;;;;;;17.00;10.40;;;;;;;23.36;42.19;100346.40;107912;1256;61796;-66
2023/09/22 04:36:23;;;;;;;15.40;9.90;;;;;;;23.53;41.82;100346.59;107762;1256;59685;-67
2023/09/22 04:38:51;;;;;;;27.40;10.90;;;;;;;23.94;41.26;100344.92;107791;1256;73098;-67
2023/09/22 04:41:19;;;;;;;17.20;10.10;;;;;;;24.19;40.82;100345.54;107856;1257;69171;-66
2023/09/22 04:43:47;;;;;;;30.70;11.20;;;;;;;24.34;40.35;100348.52;107814;1256;72624;-67
2023/09/22 04:46:19;;;;;;;21.60;9.30;;;;;;;24.20;40.41;100352.61;107922;1257;61023;-67
2023/09/22 04:48:46;;;;;;;17.40;10.30;;;;;;;24.13;40.76;100355.26;107994;1257;59651;-67
2023/09/22 04:51:14;;;;;;;13.00;9.60;;;;;;;24.38;40.57;100356.22;107849;1257;71999;-67
2023/09/22 04:53:42;;;;;;;24.50;10.20;;;;;;;24.81;39.69;100355.30;107943;1257;72875;-66
2023/09/22 04:56:09;;;;;;;15.10;10.10;;;;;;;25.01;39.39;100356.12;107840;1257;72673;-66
2023/09/22 04:58:40;;;;;;;21.70;9.50;;;;;;;25.30;38.94;100355.20;107823;1257;61835;-66
2023/09/22 05:01:08;;;;;;;15.80;9.60;;;;;;;25.56;38.46;100355.63;107853;1257;60162;-67
2023/09/22 05:03:37;;;;;;;22.30;9.50;;;;;;;25.71;37.96;100360.06;107818;1257;71918;-66
2023/09/22 05:06:14;;;;;;;18.40;9.50;;;;;;;25.92;37.73;100361.46;107832;1257;69952;-67
2023/09/22 05:08:42;;;;;;;19.20;9.40;;;;;;;26.12;37.45;100360.90;107829;1257;71219;-67
2023/09/22 05:11:10;;;;;;;19.00;10.20;;;;;;;26.41;36.87;100359.14;107905;1257;59551;-66
2023/09/22 05:13:37;;;;;;;15.70;8.60;;;;;;;26.56;36.93;100358.32;107765;1256;59999;-67
2023/09/22 05:16:06;;;;;;;16.40;9.50;;;;;;;26.98;35.95;100357.05;107772;1257;71037;-67
2023/09/22 05:18:34;;;;;;;16.90;9.30;;;;;;;27.31;35.92;100358.15;107752;1257;68900;-68
2023/09/22 05:21:02;;;;;;;17.60;9.70;;;;;;;27.83;35.02;100358.48;107820;1257;72496;-68
2023/09/22 05:23:32;;;;;;;19.90;9.00;;;;;;;28.21;34.43;100355.00;107868;1260;60272;-67
2023/09/22 05:26:00;;;;;;;19.80;9.30;;;;;;;28.53;34.04;100356.06;107880;1256;59273;-67
2023/09/22 05:28:28;;;;;;;18.70;8.70;;;;;;;28.65;33.57;100359.37;108066;1257;73052;-67
2023/09/22 05:30:55;;;;;;;15.80;9.00;;;;;;;28.86;33.55;100360.21;107921;1257;69437;-66
2023/09/22 05:33:24;;;;;;;20.90;9.30;;;;;;;29.17;32.90;100362.56;108060;1257;72707;-67
2023/09/22 05:35:52;;;;;;;11.80;8.50;;;;;;;29.42;32.46;100358.45;107955;1257;60005;-67
2023/09/22 05:38:19;;;;;;;12.70;8.80;;;;;;;29.54;32.18;100361.31;108096;1255;60003;-68
2023/09/22 05:40:47;;;;;;;17.90;8.40;;;;;;;29.55;31.96;100359.95;107896;1256;71889;-68
2023/09/22 05:43:15;;;;;;;18.30;9.00;;;;;;;29.70;32.04;100358.05;108032;1257;70062;-66
2023/09/22 05:45:42;;;;;;;19.40;8.00;;;;;;;29.90;31.72;100360.91;107773;1256;72115;-66
2023/09/22 05:48:10;;;;;;;18.20;8.40;;;;;;;30.11;31.11;100362.01;107813;1257;60089;-67
2023/09/22 05:50:37;;;;;;;12.90;8.00;;;;;;;30.35;31.18;100359.38;107891;1257;60198;-66
2023/09/22 05:53:05;;;;;;;15.80;7.90;;;;;;;30.62;30.71;100364.46;108076;1257;73048;-67
2023/09/22 05:55:33;;;;;;;21.70;8.70;;;;;;;31.07;30.21;100363.23;107927;1256;68987;-67
2023/09/22 05:58:03;;;;;;;19.10;8.80;;;;;;;31.27;29.83;100358.68;108041;1256;73141;-67
2023/09/22 06:00:31;;;;;;;20.90;8.10;;;;;;;31.37;29.13;100357.21;108050;1256;59518;-67
2023/09/22 06:02:59;;;;;;;15.10;9.00;;;;;;;31.40;29.52;100361.11;108069;1257;59932;-67
2023/09/22 06:05:27;;;;;;;20.00;8.50;;;;;;;31.47;29.08;100357.84;108007;1257;72177;-68
2023/09/22 06:07:55;;;;;;;21.60;8.30;;;;;;;31.72;29.26;100362.45;107847;1260;70106;-68
2023/09/22 06:10:24;;;;;;;18.80;7.50;;;;;;;31.87;28.72;100366.75;107977;1257;75403;-68
2023/09/22 06:12:52;;;;;;;12.80;7.00;;;;;;;31.93;28.43;100366.37;107957;1256;59103;-68
2023/09/22 06:15:19;;;;;;;18.10;7.90;;;;;;;32.06;28.69;100366.55;107950;1257;60173;-67
2023/09/22 06:17:46;;;;;;;19.90;7.80;;;;;;;32.22;28.37;100370.59;108139;1254;73473;-68
2023/09/22 06:20:18;;;;;;;14.40;7.80;;;;;;;32.23;27.68;100370.81;108147;1254;69234;-68
2023/09/22 06:22:52;;;;;;;21.10;7.40;;;;;;;32.15;27.80;100369.93;108111;1254;71170;-67
2023/09/22 06:25:20;;;;;;;18.70;7.40;;;;;;;32.10;27.85;100370.80;108127;1254;60085;-68
2023/09/22 06:27:48;;;;;;;15.90;7.30;;;;;;;32.27;27.69;100373.73;108215;1253;59581;-68
2023/09/22 06:30:20;;;;;;;11.20;6.60;;;;;;;32.41;27.50;100377.84;108099;1252;73091;-67
2023/09/22 06:32:47;;;;;;;21.60;7.80;;;;;;;32.36;27.55;100376.07;108204;1254;68665;-68
2023/09/22 06:35:15;;;;;;;20.90;7.30;;;;;;;32.58;27.42;100381.94;108104;1253;72630;-66
2023/09/22 06:37:43;;;;;;;19.40;7.20;;;;;;;32.75;27.08;100383.91;108099;1254;60275;-67
2023/09/22 06:40:11;;;;;;;17.00;7.20;;;;;;;32.87;26.79;100383.69;108101;1255;60153;-68
2023/09/22 06:42:44;;;;;;;21.30;8.20;;;;;;;32.99;27.00;100381.95;108120;1254;73021;-68
2023/09/22 06:45:12;;;;;;;15.90;7.20;;;;;;;33.11;26.45;100384.55;108210;1254;68676;-68
2023/09/22 06:47:43;;;;;;;19.30;8.00;;;;;;;33.19;26.32;100383.86;108190;1253;72991;-66
2023/09/22 06:50:11;;;;;;;13.20;7.00;;;;;;;33.10;26.32;100387.48;108127;1254;60067;-67
2023/09/22 06:52:40;;;;;;;25.10;8.20;;;;;;;33.24;26.29;100387.25;108255;1253;59688;-67
2023/09/22 06:55:09;;;;;;;14.10;6.70;;;;;;;33.34;26.39;100389.16;108201;1252;71777;-68
2023/09/22 06:57:40;;;;;;;15.50;6.90;;;;;;;33.69;26.12;100386.15;108258;1253;61351;-67
2023/09/22 07:00:18;;;;;;;22.50;6.90;;;;;;;34.29;25.51;100395.77;108176;1256;64008;-68
2023/09/22 07:02:47;;;;;;;19.20;7.00;;;;;;;34.84;24.71;100395.27;108287;1253;59500;-68
2023/09/22 07:05:16;;;;;;;18.40;6.90;;;;;;;35.27;24.20;100394.94;108163;1253;59606;-68
2023/09/22 07:07:43;;;;;;;15.60;6.10;;;;;;;35.21;23.94;100394.29;108402;1253;64086;-67
2023/09/22 07:10:10;;;;;;;16.70;5.40;;;;;;;35.36;23.90;100391.44;108249;1254;61382;-67
2023/09/22 07:12:38;;;;;;;16.40;6.10;;;;;;;35.53;23.43;100389.78;108190;1252;62456;-68
2023/09/22 07:15:06;;;;;;;21.60;6.60;;;;;;;35.45;23.35;100390.72;108237;1253;60300;-66
2023/09/22 07:17:34;;;;;;;14.80;6.00;;;;;;;35.35;23.46;100390.48;108159;1252;60338;-68
2023/09/22 07:20:08;;;;;;;17.80;6.00;;;;;;;35.75;23.21;100386.02;108261;1253;63792;-67
2023/09/22 07:22:36;;;;;;;17.40;5.90;;;;;;;35.89;23.05;100386.73;108253;1253;61934;-67
2023/09/22 07:25:06;;;;;;;13.50;5.30;;;;;;;35.85;23.09;100386.97;108332;1253;62418;-68
2023/09/22 07:27:36;;;;;;;14.00;6.40;;;;;;;35.99;22.94;100386.69;108113;1254;60479;-66
2023/09/22 07:30:09;;;;;;;13.40;5.30;;;;;;;36.34;22.85;100383.63;108053;1254;60316;-66
2023/09/22 07:32:40;;;;;;;8.20;5.00;;;;;;;36.73;22.43;100380.68;108048;1254;64869;-68
2023/09/22 07:35:08;;;;;;;16.40;5.50;;;;;;;36.80;22.20;100383.94;108019;1258;61505;-68
2023/09/22 07:37:36;;;;;;;13.10;5.30;;;;;;;36.85;21.91;100385.45;108046;1254;64031;-67
2023/09/22 07:40:08;;;;;;;9.70;5.20;;;;;;;37.24;21.61;100384.79;108067;1254;60296;-69
2023/09/22 07:42:38;;;;;;;12.30;5.30;;;;;;;37.57;21.18;100382.54;108038;1254;60247;-68
2023/09/22 07:45:07;;;;;;;10.90;5.10;;;;;;;37.55;21.16;100384.23;108102;1254;63851;-68
2023/09/22 07:47:35;;;;;;;11.10;5.30;;;;;;;37.42;21.04;100383.18;108146;1254;61448;-67
2023/09/22 07:50:04;;;;;;;18.30;5.60;;;;;;;37.55;21.14;100384.02;108032;1253;63755;-67
2023/09/22 07:52:33;;;;;;;15.30;5.50;;;;;;;37.67;20.85;100384.45;108127;1253;60309;-68
2023/09/22 07:55:01;;;;;;;18.30;5.60;;;;;;;37.54;20.89;100390.45;108067;1255;60363;-68
2023/09/22 07:57:30;;;;;;;13.80;5.10;;;;;;;37.29;20.84;100387.66;108027;1254;65029;-68
2023/09/22 07:59:58;;;;;;;17.80;5.50;;;;;;;37.44;20.85;100380.43;108037;1254;61791;-68
2023/09/22 08:02:25;;;;;;;13.30;5.30;;;;;;;37.70;20.56;100385.14;108058;1254;62502;-68
2023/09/22 08:04:53;;;;;;;10.80;5.40;;;;;;;37.51;20.31;100383.19;108150;1254;61001;-68
2023/09/22 08:07:20;;;;;;;9.50;4.90;;;;;;;37.64;20.51;100382.03;108050;1254;60223;-68
2023/09/22 08:09:47;;;;;;;16.40;5.20;;;;;;;37.78;20.25;100381.20;108122;1254;63635;-69
2023/09/22 08:12:15;;;;;;;14.00;5.90;;;;;;;37.88;20.28;100380.02;108054;1252;60427;-68
2023/09/22 08:14:45;;;;;;;23.40;5.80;;;;;;;38.27;19.99;100378.37;108135;1253;66184;-68
2023/09/22 08:17:24;;;;;;;14.70;5.20;;;;;;;38.60;19.57;100381.64;108041;1254;60414;-67
2023/09/22 08:19:52;;;;;;;10.30;4.80;;;;;;;38.76;19.18;100380.08;108087;1253;60478;-67
2023/09/22 08:22:20;;;;;;;25.50;5.60;;;;;;;38.87;19.32;100377.12;108075;1253;66954;-68
2023/09/22 08:24:47;;;;;;;10.10;5.00;;;;;;;38.73;19.13;100378.33;107997;1254;61382;-68
2023/09/22 08:27:15;;;;;;;8.80;4.90;;;;;;;38.59;19.26;100376.08;108086;1252;64697;-68
2023/09/22 08:29:43;;;;;;;20.00;5.30;;;;;;;38.68;19.16;100377.55;108167;1253;60276;-68
2023/09/22 08:32:11;;;;;;;10.50;4.90;;;;;;;38.32;19.23;100372.86;108020;1253;60420;-68
2023/09/22 08:34:38;;;;;;;10.80;4.80;;;;;;;37.86;19.58;100370.12;108100;1253;65913;-68
2023/09/22 08:37:06;;;;;;;8.80;4.50;;;;;;;37.75;19.90;100365.34;108049;1254;60737;-67
2023/09/22 08:39:33;;;;;;;15.80;4.80;;;;;;;37.87;19.53;100366.88;108048;1254;62437;-68
2023/09/22 08:42:01;;;;;;;14.20;5.00;;;;;;;37.99;19.41;100369.06;108077;1254;60294;-68
2023/09/22 08:44:28;;;;;;;12.60;5.40;;;;;;;37.85;19.58;100367.20;108065;1252;60537;-68
2023/09/22 08:46:57;;;;;;;12.00;5.00;;;;;;;37.83;19.77;100363.13;108071;1254;63922;-67
2023/09/22 08:49:26;;;;;;;8.10;4.10;;;;;;;37.94;19.65;100361.16;108252;1253;62634;-69
2023/09/22 08:51:55;;;;;;;16.70;4.90;;;;;;;38.11;19.69;100363.48;108129;1254;62633;-68
2023/09/22 08:54:22;;;;;;;10.80;4.50;;;;;;;38.08;19.72;100359.65;108090;1258;60628;-68
2023/09/22 08:56:50;;;;;;;9.30;4.30;;;;;;;38.34;19.67;100359.16;108155;1254;60334;-68
2023/09/22 08:59:17;;;;;;;13.00;5.10;;;;;;;38.51;19.51;100361.76;108135;1254;63669;-68
2023/09/22 09:01:45;;;;;;;11.20;4.70;;;;;;;38.54;19.47;100359.77;108058;1254;61337;-67
2023/09/22 09:04:30;;;;;;;12.80;4.10;;;;;;;38.49;19.50;100356.96;108017;1256;62469;-69
2023/09/22 09:06:58;;;;;;;8.20;4.00;;;;;;;38.45;19.60;100355.74;108160;1253;60417;-67
2023/09/22 09:09:25;;;;;;;12.70;4.40;;;;;;;38.38;19.72;100352.04;108066;1256;60364;-67
2023/09/22 09:12:00;;;;;;;11.10;4.00;;;;;;;38.35;19.67;100353.06;108146;1252;65131;-68
2023/09/22 09:14:31;;;;;;;10.80;3.90;;;;;;;38.11;19.79;100349.17;108156;1254;60367;-68
2023/09/22 09:16:58;;;;;;;12.30;4.40;;;;;;;37.92;20.07;100349.45;108108;1254;62856;-69
2023/09/22 09:19:27;;;;;;;15.30;4.30;;;;;;;37.79;20.08;100345.50;108127;1258;60277;-68
2023/09/22 09:22:09;;;;;;;14.00;4.40;;;;;;;37.57;20.20;100344.30;108099;1253;60287;-67
2023/09/22 09:24:37;;;;;;;10.50;3.80;;;;;;;37.46;20.38;100343.85;108119;1252;72657;-68
2023/09/22 09:27:18;;;;;;;11.60;3.80;;;;;;;37.93;20.16;100341.06;108158;1253;69926;-68
2023/09/22 09:29:46;;;;;;;9.80;3.60;;;;;;;38.10;19.91;100343.33;108218;1254;63948;-68
2023/09/22 09:32:26;;;;;;;8.40;3.60;;;;;;;38.50;19.79;100339.38;108094;1254;59897;-68
2023/09/22 09:34:54;;;;;;;13.40;4.10;;;;;;;39.02;19.13;100343.38;108144;1254;60342;-68
2023/09/22 09:37:22;;;;;;;12.20;3.80;;;;;;;39.09;18.93;100341.52;108149;1254;65611;-69
2023/09/22 09:39:54;;;;;;;8.40;3.90;;;;;;;38.96;19.12;100335.44;108121;1254;61639;-69
2023/09/22 09:42:23;;;;;;;12.30;3.80;;;;;;;38.52;19.35;100341.84;108076;1253;72374;-69
2023/09/22 09:44:52;;;;;;;11.00;3.70;;;;;;;38.28;19.79;100338.68;108066;1254;60441;-68
2023/09/22 09:47:25;;;;;;;12.50;3.60;;;;;;;38.64;19.45;100339.63;108057;1254;60348;-68
2023/09/22 09:49:57;;;;;;;13.00;4.10;;;;;;;38.07;19.77;100343.10;108003;1253;64870;-68
2023/09/22 09:52:38;;;;;;;15.00;3.40;;;;;;;37.80;20.00;100340.14;108083;1252;60559;-69
2023/09/22 09:55:09;;;;;;;;;;;;;;;38.06;19.88;100343.48;108071;1254;63875;-68
2023/09/22 09:57:41;;;;;;;9.30;3.00;;;;;;;38.04;19.94;100340.28;108057;1252;60447;-66
2023/09/22 10:00:28;;;;;;;18.90;4.10;;;;;;;37.93;20.06;100338.05;108082;1256;60402;-67
2023/09/22 10:02:58;;;;;;;16.60;3.50;;;;;;;37.62;20.37;100337.67;108093;1254;64971;-68
2023/09/22 10:05:25;;;;;;;10.40;4.00;;;;;;;36.96;21.08;100333.25;107888;1254;61442;-69
2023/09/22 10:07:56;;;;;;;10.90;4.10;;;;;;;37.03;21.17;100340.30;108049;1253;70900;-68
2023/09/22 10:10:25;;;;;;;10.10;4.10;;;;;;;36.59;21.59;100344.65;108053;1252;60467;-68
2023/09/22 10:12:52;;;;;;;16.20;3.60;;;;;;;36.68;21.82;100338.23;108109;1256;60438;-68
2023/09/22 10:16:09;;;;;;;25.90;4.50;;;;;;;37.04;21.59;100329.31;108123;1253;63697;-67
2023/09/22 10:18:55;;;;;;;11.80;3.40;;;;;;;37.21;21.28;100328.81;108088;1254;61724;-67
2023/09/22 10:21:38;;;;;;;15.90;4.80;;;;;;;36.91;21.53;100332.29;108090;1254;62828;-68
2023/09/22 10:24:20;;;;;;;8.50;3.40;;;;;;;36.89;21.55;100330.54;108056;1254;60488;-68
2023/09/22 10:26:53;;;;;;;14.90;3.70;;;;;;;36.66;21.80;100332.41;108115;1253;59058;-68
2023/09/22 10:29:36;;;;;;;19.40;3.90;;;;;;;35.98;22.45;100339.10;108061;1254;73038;-68
2023/09/22 10:32:21;;;;;;;13.10;4.20;;;;;;;35.06;23.42;100339.36;108036;1253;71457;-68
2023/09/22 10:34:56;;;;;;;14.20;4.30;;;;;;;34.63;23.97;100341.45;108065;1254;64790;-68
2023/09/22 10:37:27;;;;;;;13.20;3.60;;;;;;;34.00;24.66;100338.73;108106;1254;60229;-68
2023/09/22 10:39:57;;;;;;;23.90;4.20;;;;;;;33.92;24.76;100330.80;108102;1253;60136;-68
2023/09/22 10:42:26;;;;;;;17.60;3.80;;;;;;;34.06;24.68;100333.54;108062;1253;65068;-67
2023/09/22 10:45:03;;;;;;;26.30;4.60;;;;;;;34.07;24.40;100344.53;107985;1254;62478;-67
2023/09/22 10:47:47;;;;;;;13.70;3.80;;;;;;;33.98;24.48;100339.91;108064;1254;63856;-68
2023/09/22 10:50:26;;;;;;;13.30;3.90;;;;;;;33.83;24.73;100336.27;108174;1254;60345;-68
2023/09/22 10:52:56;;;;;;;14.40;4.30;;;;;;;33.92;24.49;100339.41;108337;1254;59223;-68
2023/09/22 10:55:41;;;;;;;13.30;3.90;;;;;;;34.53;24.11;100333.84;108186;1254;63742;-68
2023/09/22 10:58:18;;;;;;;11.90;3.30;;;;;;;35.06;23.41;100331.71;108068;1254;61474;-67
2023/09/22 11:01:00;;;;;;;14.10;3.80;;;;;;;35.38;23.04;100330.36;108186;1254;64105;-67
2023/09/22 11:03:28;;;;;;;13.60;3.90;;;;;;;35.55;22.86;100327.20;108190;1254;60373;-66
2023/09/22 11:06:13;;;;;;;11.40;3.90;;;;;;;35.53;22.68;100333.98;108083;1253;60258;-68
2023/09/22 11:08:51;;;;;;;11.60;4.20;;;;;;;35.63;22.51;100325.77;108147;1253;65035;-68
2023/09/22 11:11:19;;;;;;;17.80;4.10;;;;;;;35.96;22.25;100323.68;108119;1254;60264;-68
2023/09/22 11:13:51;;;;;;;13.20;4.00;;;;;;;36.16;22.52;100325.70;108050;1258;63778;-68
2023/09/22 11:16:19;;;;;;;26.90;4.60;;;;;;;35.81;22.50;100330.70;108092;1254;60289;-68
2023/09/22 11:18:48;;;;;;;11.90;4.00;;;;;;;35.55;22.83;100326.48;108069;1254;60428;-68
2023/09/22 11:21:16;;;;;;;10.10;3.70;;;;;;;35.68;22.84;100326.95;108111;1254;64942;-68